Time;durP1;ratioP1;P1;durP2;ratioP2;P2;SDS_P1;SDS_P2;PMS_P1;PMS_P2;Temp;Humidity;BMP_temperature;BMP_pressure;BME280_temperature;BME280_humidity;BME280_pressure;Samples;Min_cycle;Max_cycle;Signal;HPM_P1;HPM_P2
2022/09/16 00:01:30;;;;;;;0.60;0.32;;;11.80;99.90;;;;;;4997737;28;20584;-74
2022/09/16 00:03:56;;;;;;;0.45;0.38;;;11.80;99.90;;;;;;4998284;28;20026;-74
2022/09/16 00:06:25;;;;;;;1.17;0.40;;;11.70;99.90;;;;;;4998429;28;20057;-74
2022/09/16 00:08:52;;;;;;;0.98;0.80;;;11.80;99.90;;;;;;5001406;28;20037;-73
2022/09/16 00:11:18;;;;;;;0.45;0.45;;;11.70;99.90;;;;;;4998411;28;20057;-74
2022/09/16 00:13:44;;;;;;;4.40;0.52;;;11.70;99.90;;;;;;4996247;28;20489;-74
2022/09/16 00:16:22;;;;;;;0.52;0.52;;;11.70;99.90;;;;;;4999334;28;20080;-74
2022/09/16 00:18:48;;;;;;;1.02;0.65;;;11.70;99.90;;;;;;5006696;28;20057;-73
2022/09/16 00:21:13;;;;;;;0.60;0.45;;;11.70;99.90;;;;;;5002363;28;20030;-74
2022/09/16 00:23:39;;;;;;;0.68;0.40;;;11.60;99.90;;;;;;4997466;28;20058;-74
2022/09/16 00:26:05;;;;;;;0.43;0.40;;;11.60;99.90;;;;;;5006448;28;20034;-74
2022/09/16 00:28:31;;;;;;;4.40;0.88;;;11.60;99.90;;;;;;5003208;28;20083;-74
2022/09/16 00:31:00;;;;;;;0.30;0.30;;;11.60;99.90;;;;;;5004627;28;20037;-75
2022/09/16 00:33:26;;;;;;;0.63;0.40;;;11.60;99.90;;;;;;5010085;28;20109;-74
2022/09/16 00:36:02;;;;;;;0.85;0.60;;;11.60;99.90;;;;;;5010203;28;20034;-73
2022/09/16 00:38:27;;;;;;;1.35;0.50;;;11.60;99.90;;;;;;5003580;28;20084;-74
2022/09/16 00:40:53;;;;;;;4.00;1.02;;;11.50;99.90;;;;;;5002928;28;20500;-74
2022/09/16 00:43:18;;;;;;;0.90;0.30;;;11.50;99.90;;;;;;5006801;28;20053;-74
2022/09/16 00:45:50;;;;;;;0.85;0.80;;;11.40;99.90;;;;;;5006482;28;20033;-74
2022/09/16 00:48:20;;;;;;;0.88;0.57;;;11.40;99.90;;;;;;5005273;28;20434;-75
2022/09/16 00:50:52;;;;;;;0.55;0.45;;;11.40;99.90;;;;;;5005050;28;20038;-73
2022/09/16 00:53:26;;;;;;;0.52;0.40;;;11.40;99.90;;;;;;5000197;28;20634;-74
2022/09/16 00:55:56;;;;;;;0.43;0.43;;;11.40;99.90;;;;;;5000980;28;20031;-74
2022/09/16 00:58:29;;;;;;;0.40;0.40;;;11.30;99.90;;;;;;5001309;28;20026;-73
2022/09/16 01:00:55;;;;;;;1.08;0.90;;;11.40;99.90;;;;;;5001438;28;20064;-74
2022/09/16 01:03:21;;;;;;;0.43;0.32;;;11.40;99.90;;;;;;5007356;28;20049;-74
2022/09/16 01:05:48;;;;;;;0.45;0.30;;;11.40;99.90;;;;;;5008196;28;20100;-74
2022/09/16 01:08:13;;;;;;;0.50;0.50;;;11.30;99.90;;;;;;4976638;28;20106;-74
2022/09/16 01:10:41;;;;;;;0.40;0.40;;;11.30;99.90;;;;;;4999924;28;20125;-74
2022/09/16 01:13:10;;;;;;;0.95;0.40;;;11.30;99.90;;;;;;5007025;28;20511;-75
2022/09/16 01:16:05;;;;;;;0.95;0.63;;;11.30;99.90;;;;;;5007694;28;20048;-74
2022/09/16 01:18:42;;;;;;;0.65;0.43;;;11.20;99.90;;;;;;5003339;28;20061;-74
2022/09/16 01:21:27;;;;;;;1.35;0.63;;;11.20;99.90;;;;;;5007348;28;20046;-75
2022/09/16 01:24:22;;;;;;;0.50;0.50;;;11.10;99.90;;;;;;5002985;28;20109;-74
2022/09/16 01:27:04;;;;;;;1.63;0.93;;;11.10;99.90;;;;;;5001261;28;20056;-75
2022/09/16 01:29:58;;;;;;;1.85;0.93;;;11.10;99.90;;;;;;5004421;28;20026;-74
2022/09/16 01:32:48;;;;;;;1.75;0.90;;;11.10;99.90;;;;;;5005110;28;20034;-74
2022/09/16 01:35:26;;;;;;;0.77;0.57;;;11.10;99.90;;;;;;5009268;28;20033;-74
2022/09/16 01:37:59;;;;;;;0.88;0.88;;;11.10;99.90;;;;;;5005760;28;20030;-73
2022/09/16 01:40:53;;;;;;;0.50;0.50;;;11.10;99.90;;;;;;5001382;28;20084;-75
2022/09/16 01:43:43;;;;;;;1.52;0.57;;;11.10;99.90;;;;;;4997160;28;20041;-73
2022/09/16 01:46:21;;;;;;;1.27;0.40;;;11.10;99.90;;;;;;4995879;28;20040;-74
2022/09/16 01:49:16;;;;;;;1.60;0.60;;;11.00;99.90;;;;;;5000155;28;20112;-75
2022/09/16 01:51:49;;;;;;;0.35;0.35;;;11.00;99.90;;;;;;5003406;28;20033;-74
2022/09/16 01:54:30;;;;;;;0.47;0.47;;;11.00;99.90;;;;;;5000797;28;20033;-74
2022/09/16 01:57:22;;;;;;;1.08;1.00;;;11.00;99.90;;;;;;5007458;28;20428;-74
2022/09/16 01:59:52;;;;;;;0.50;0.50;;;11.10;99.90;;;;;;4996318;28;20038;-75
2022/09/16 02:02:32;;;;;;;0.40;0.40;;;11.00;99.90;;;;;;4993084;28;20072;-75
2022/09/16 02:05:02;;;;;;;1.58;0.60;;;11.00;99.90;;;;;;4996665;28;20033;-74
2022/09/16 02:07:32;;;;;;;0.45;0.38;;;11.00;99.90;;;;;;5004241;28;20038;-74
2022/09/16 02:10:05;;;;;;;0.40;0.40;;;10.80;99.90;;;;;;5006325;28;20033;-75
2022/09/16 02:12:36;;;;;;;0.47;0.43;;;10.70;99.90;;;;;;4999184;28;20026;-74
2022/09/16 02:15:07;;;;;;;0.30;0.30;;;10.80;99.90;;;;;;4999018;28;20571;-75
2022/09/16 02:17:37;;;;;;;0.83;0.40;;;10.80;99.90;;;;;;5002753;28;20485;-75
2022/09/16 02:20:16;;;;;;;1.70;0.85;;;10.80;99.90;;;;;;5003848;28;20037;-75
2022/09/16 02:22:51;;;;;;;4.32;0.40;;;10.80;99.90;;;;;;4998164;28;20025;-75
2022/09/16 02:25:18;;;;;;;0.50;0.43;;;10.80;99.90;;;;;;5005544;28;20053;-75
2022/09/16 02:27:46;;;;;;;0.60;0.60;;;10.70;99.90;;;;;;5003191;28;20053;-75
2022/09/16 02:30:16;;;;;;;0.30;0.30;;;10.70;99.90;;;;;;5001656;28;20045;-75
2022/09/16 02:32:46;;;;;;;1.02;0.50;;;10.60;99.90;;;;;;5003781;28;20164;-74
2022/09/16 02:35:16;;;;;;;1.05;0.80;;;10.70;99.90;;;;;;5006835;28;20034;-74
2022/09/16 02:37:44;;;;;;;0.70;0.70;;;10.80;99.90;;;;;;5007695;28;20544;-74
2022/09/16 02:40:22;;;;;;;1.50;0.63;;;10.70;99.90;;;;;;5005250;28;20439;-74
2022/09/16 02:42:48;;;;;;;0.88;0.85;;;10.70;99.90;;;;;;5004127;28;20084;-74
2022/09/16 02:45:14;;;;;;;2.60;0.80;;;10.70;99.90;;;;;;5004847;28;20038;-73
2022/09/16 02:47:56;;;;;;;1.80;1.17;;;10.60;99.90;;;;;;5006850;28;20463;-74
2022/09/16 02:50:41;;;;;;;1.88;0.80;;;10.70;99.90;;;;;;5005907;28;20033;-74
2022/09/16 02:53:38;;;;;;;0.47;0.47;;;10.70;99.90;;;;;;4999162;28;20026;-74
2022/09/16 02:56:13;;;;;;;0.70;0.65;;;10.70;99.90;;;;;;4998321;28;20030;-74
2022/09/16 02:58:39;;;;;;;2.30;0.95;;;10.60;99.90;;;;;;5006268;28;20061;-75
2022/09/16 03:01:05;;;;;;;0.52;0.52;;;10.60;99.90;;;;;;5001605;28;20058;-75
2022/09/16 03:03:31;;;;;;;1.05;0.60;;;10.80;99.90;;;;;;4997490;28;20485;-74
2022/09/16 03:06:12;;;;;;;2.08;1.00;;;10.80;99.90;;;;;;5006878;28;20026;-75
2022/09/16 03:08:39;;;;;;;0.55;0.40;;;10.70;99.90;;;;;;5000305;28;20026;-75
2022/09/16 03:11:35;;;;;;;1.40;0.60;;;10.70;99.90;;;;;;4988815;28;20026;-75
2022/09/16 03:14:11;;;;;;;1.23;0.60;;;10.70;99.90;;;;;;4997285;28;20188;-75
2022/09/16 03:17:03;;;;;;;1.13;0.63;;;10.80;99.90;;;;;;4993542;28;20625;-74
2022/09/16 03:19:47;;;;;;;0.50;0.50;;;10.80;99.90;;;;;;4995777;28;20524;-77
2022/09/16 03:22:29;;;;;;;1.23;1.13;;;10.70;99.90;;;;;;5002440;28;20080;-74
2022/09/16 03:25:16;;;;;;;0.93;0.90;;;10.70;99.90;;;;;;5001807;28;20476;-74
2022/09/16 03:27:51;;;;;;;1.02;0.80;;;10.70;99.90;;;;;;4996698;28;20038;-75
2022/09/16 03:30:17;;;;;;;3.95;0.70;;;10.70;99.90;;;;;;5000139;28;20021;-76
2022/09/16 03:32:47;;;;;;;0.82;0.82;;;10.70;99.90;;;;;;5004795;28;20034;-76
2022/09/16 03:35:25;;;;;;;0.65;0.65;;;10.70;99.90;;;;;;5005027;28;20109;-75
2022/09/16 03:37:53;;;;;;;0.88;0.70;;;10.60;99.90;;;;;;4998237;28;20025;-75
2022/09/16 03:40:20;;;;;;;3.55;0.90;;;10.60;99.90;;;;;;5000653;28;20718;-76
2022/09/16 03:42:45;;;;;;;0.82;0.50;;;10.60;99.90;;;;;;4998978;28;20034;-76
2022/09/16 03:45:17;;;;;;;0.80;0.50;;;10.60;99.90;;;;;;4998397;28;20560;-74
2022/09/16 03:47:45;;;;;;;1.25;1.15;;;10.50;99.90;;;;;;5001911;28;20079;-74
2022/09/16 03:50:10;;;;;;;0.68;0.57;;;10.30;99.90;;;;;;4994959;28;20060;-74
2022/09/16 03:52:36;;;;;;;0.95;0.60;;;10.40;99.90;;;;;;5003599;28;20045;-74
2022/09/16 03:55:01;;;;;;;0.70;0.40;;;10.50;99.90;;;;;;5001704;28;20760;-74
2022/09/16 03:57:29;;;;;;;0.80;0.80;;;10.60;99.90;;;;;;5006802;28;20519;-74
2022/09/16 03:59:54;;;;;;;0.70;0.70;;;10.80;99.90;;;;;;5009035;28;20061;-74
2022/09/16 04:02:20;;;;;;;1.98;1.52;;;10.80;99.90;;;;;;5009416;28;20060;-74
2022/09/16 04:04:45;;;;;;;0.93;0.77;;;10.90;99.90;;;;;;5009739;28;20022;-74
2022/09/16 04:07:11;;;;;;;1.75;1.17;;;10.90;99.90;;;;;;5009807;28;20026;-74
2022/09/16 04:09:36;;;;;;;7.20;0.55;;;10.80;99.90;;;;;;5009225;28;20052;-74
2022/09/16 04:12:04;;;;;;;0.32;0.32;;;10.70;99.90;;;;;;5010049;28;20396;-74
2022/09/16 04:14:33;;;;;;;1.45;0.75;;;10.60;99.90;;;;;;5005334;28;20022;-74
2022/09/16 04:16:58;;;;;;;0.93;0.50;;;10.60;99.90;;;;;;5006701;28;20052;-74
2022/09/16 04:19:33;;;;;;;0.95;0.82;;;10.60;99.90;;;;;;5000868;28;20513;-75
2022/09/16 04:21:58;;;;;;;0.60;0.50;;;10.60;99.90;;;;;;5009803;28;20038;-74
2022/09/16 04:24:24;;;;;;;2.40;0.55;;;10.60;99.90;;;;;;5009098;28;20030;-74
2022/09/16 04:26:49;;;;;;;0.68;0.60;;;10.50;99.90;;;;;;5003743;28;20068;-74
2022/09/16 04:29:18;;;;;;;1.02;0.77;;;10.50;99.90;;;;;;5008767;28;20034;-74
2022/09/16 04:31:43;;;;;;;1.23;0.80;;;10.50;99.90;;;;;;5008833;28;20080;-75
2022/09/16 04:34:11;;;;;;;1.13;0.90;;;10.40;99.90;;;;;;5006551;28;20564;-74
2022/09/16 04:36:38;;;;;;;2.78;0.70;;;10.40;99.90;;;;;;4996965;28;20030;-75
2022/09/16 04:39:04;;;;;;;2.55;1.42;;;10.40;99.90;;;;;;5007960;28;20404;-75
2022/09/16 04:41:30;;;;;;;1.13;0.68;;;10.30;99.90;;;;;;5011536;28;20038;-75
2022/09/16 04:43:57;;;;;;;0.50;0.50;;;10.30;99.90;;;;;;4999632;28;20393;-75
2022/09/16 04:46:24;;;;;;;0.50;0.50;;;10.20;99.90;;;;;;4998880;28;20105;-75
2022/09/16 04:48:51;;;;;;;0.98;0.85;;;10.30;99.90;;;;;;5007499;28;20087;-75
2022/09/16 04:51:18;;;;;;;0.63;0.63;;;10.20;99.90;;;;;;5005056;28;20104;-74
2022/09/16 04:53:51;;;;;;;0.30;0.30;;;10.30;99.90;;;;;;4999046;28;20037;-74
2022/09/16 04:56:20;;;;;;;1.10;0.90;;;10.40;99.90;;;;;;5009462;28;20049;-74
2022/09/16 04:58:51;;;;;;;1.52;1.00;;;10.40;99.90;;;;;;5000964;28;20038;-74
2022/09/16 05:01:19;;;;;;;0.85;0.50;;;10.40;99.90;;;;;;5009445;28;20095;-74
2022/09/16 05:03:47;;;;;;;0.50;0.47;;;10.50;99.90;;;;;;5003846;28;20041;-74
2022/09/16 05:06:16;;;;;;;1.48;0.80;;;10.40;99.90;;;;;;5007619;28;20079;-74
2022/09/16 05:08:42;;;;;;;2.08;1.20;;;10.30;99.90;;;;;;5004758;28;20166;-75
2022/09/16 05:11:17;;;;;;;0.40;0.40;;;10.40;99.90;;;;;;5005546;28;20026;-75
2022/09/16 05:13:42;;;;;;;4.05;0.63;;;10.40;99.90;;;;;;4996498;28;20034;-74
2022/09/16 05:16:13;;;;;;;1.52;0.93;;;10.30;99.90;;;;;;5008062;28;20473;-74
2022/09/16 05:18:40;;;;;;;2.55;0.80;;;10.40;99.90;;;;;;5000913;28;20050;-74
2022/09/16 05:21:08;;;;;;;1.90;0.88;;;10.40;99.90;;;;;;5007123;28;20116;-75
2022/09/16 05:23:34;;;;;;;0.43;0.43;;;10.50;99.90;;;;;;4999808;28;20493;-74
2022/09/16 05:26:05;;;;;;;0.73;0.52;;;10.60;99.90;;;;;;5006117;28;20030;-75
2022/09/16 05:28:32;;;;;;;0.80;0.80;;;10.80;99.90;;;;;;5002574;28;20113;-74
2022/09/16 05:31:15;;;;;;;1.20;0.52;;;11.00;99.90;;;;;;5006806;28;20055;-74
2022/09/16 05:33:43;;;;;;;0.90;0.57;;;11.00;99.90;;;;;;4996486;28;20046;-74
2022/09/16 05:36:14;;;;;;;0.75;0.75;;;11.00;99.90;;;;;;5008569;28;20044;-75
2022/09/16 05:38:40;;;;;;;0.70;0.50;;;11.10;99.90;;;;;;5009546;28;20068;-73
2022/09/16 05:41:06;;;;;;;1.15;0.38;;;11.20;99.90;;;;;;5006761;28;20520;-74
2022/09/16 05:43:32;;;;;;;1.38;0.98;;;11.20;99.90;;;;;;5003976;28;20503;-74
2022/09/16 05:45:58;;;;;;;0.57;0.57;;;11.30;99.90;;;;;;5005135;28;20034;-74
2022/09/16 05:48:24;;;;;;;2.20;0.60;;;11.40;99.90;;;;;;5001481;28;20754;-74
2022/09/16 05:51:24;;;;;;;0.60;0.60;;;11.40;99.90;;;;;;5005195;28;20092;-74
2022/09/16 05:53:51;;;;;;;0.88;0.68;;;11.30;99.90;;;;;;4993059;28;20052;-74
2022/09/16 05:56:19;;;;;;;0.55;0.55;;;11.30;99.90;;;;;;5010091;28;20033;-74
2022/09/16 05:58:45;;;;;;;2.53;0.90;;;11.20;99.90;;;;;;5001000;28;20038;-75
2022/09/16 06:01:19;;;;;;;0.50;0.50;;;11.20;99.90;;;;;;5002587;28;20105;-74
2022/09/16 06:03:46;;;;;;;3.35;1.48;;;11.50;99.90;;;;;;4998391;28;20030;-75
2022/09/16 06:06:29;;;;;;;1.50;1.25;;;11.40;99.90;;;;;;5009467;28;20026;-74
2022/09/16 06:09:06;;;;;;;0.52;0.35;;;11.50;99.90;;;;;;5002276;28;20026;-74
2022/09/16 06:11:36;;;;;;;1.00;0.85;;;11.60;99.90;;;;;;5007253;28;20026;-74
2022/09/16 06:14:18;;;;;;;1.05;0.80;;;11.70;99.90;;;;;;5000433;28;20043;-75
2022/09/16 06:16:44;;;;;;;0.85;0.65;;;11.60;99.90;;;;;;5000887;28;20037;-75
2022/09/16 06:19:19;;;;;;;2.35;0.70;;;11.70;99.90;;;;;;5003134;28;20046;-74
2022/09/16 06:21:55;;;;;;;2.30;1.02;;;11.80;99.90;;;;;;5001740;28;20033;-75
2022/09/16 06:24:21;;;;;;;4.05;0.60;;;11.80;99.90;;;;;;5000058;28;20106;-73
2022/09/16 06:26:48;;;;;;;3.75;0.88;;;12.00;99.90;;;;;;4998845;28;20109;-74
2022/09/16 06:29:14;;;;;;;1.77;0.90;;;12.20;99.90;;;;;;4997124;28;20449;-74
2022/09/16 06:31:40;;;;;;;0.40;0.40;;;12.20;99.90;;;;;;4996769;28;20429;-77
2022/09/16 06:34:09;;;;;;;1.05;0.75;;;12.10;99.90;;;;;;5005718;28;20092;-78
2022/09/16 06:36:37;;;;;;;1.55;1.30;;;12.20;99.90;;;;;;5005673;28;20139;-79
2022/09/16 06:39:04;;;;;;;0.40;0.40;;;12.10;99.90;;;;;;5008115;28;20084;-77
2022/09/16 06:41:32;;;;;;;0.55;0.50;;;12.00;99.90;;;;;;5002529;28;20038;-77
2022/09/16 06:43:58;;;;;;;1.92;0.93;;;12.10;99.90;;;;;;5004779;28;20548;-82
2022/09/16 06:46:25;;;;;;;2.28;0.98;;;12.30;99.90;;;;;;5000658;28;20029;-78
2022/09/16 06:48:53;;;;;;;3.45;1.85;;;12.70;99.90;;;;;;5000639;28;20621;-78
2022/09/16 06:51:21;;;;;;;1.45;0.77;;;12.70;99.90;;;;;;5002960;28;20053;-76
2022/09/16 06:53:48;;;;;;;1.02;0.70;;;12.50;99.90;;;;;;5006940;28;20034;-77
2022/09/16 06:56:16;;;;;;;4.75;0.90;;;12.50;99.90;;;;;;5006491;28;20030;-79
2022/09/16 06:58:44;;;;;;;1.83;0.98;;;12.70;99.90;;;;;;4998171;28;20077;-78
2022/09/16 07:01:17;;;;;;;0.57;0.50;;;12.80;99.90;;;;;;5002541;28;20065;-74
2022/09/16 07:03:46;;;;;;;0.82;0.82;;;12.70;99.90;;;;;;4992487;28;20473;-80
2022/09/16 07:06:13;;;;;;;0.50;0.50;;;12.60;99.90;;;;;;4999099;28;20053;-85
2022/09/16 07:08:39;;;;;;;0.82;0.73;;;12.50;99.90;;;;;;4996749;28;20491;-75
2022/09/16 07:11:07;;;;;;;0.65;0.65;;;12.50;99.90;;;;;;5002298;28;20041;-76
2022/09/16 07:13:33;;;;;;;0.50;0.50;;;12.60;99.90;;;;;;4999162;28;20021;-76
2022/09/16 07:16:13;;;;;;;0.52;0.52;;;12.80;99.90;;;;;;4996818;28;20033;-76
2022/09/16 07:18:55;;;;;;;0.57;0.57;;;12.80;99.90;;;;;;5003701;28;20144;-75
2022/09/16 07:21:29;;;;;;;0.60;0.60;;;12.60;99.90;;;;;;5023210;28;20395;-75
2022/09/16 07:24:09;;;;;;;1.98;0.88;;;12.60;99.90;;;;;;5024674;28;20025;-74
2022/09/16 07:26:42;;;;;;;0.52;0.43;;;12.70;99.90;;;;;;5027839;28;20091;-75
2022/09/16 07:29:25;;;;;;;0.52;0.52;;;12.80;99.90;;;;;;5015211;28;20507;-76
2022/09/16 07:31:57;;;;;;;0.60;0.60;;;12.90;99.90;;;;;;5025062;28;20366;-75
2022/09/16 07:35:10;;;;;;;0.60;0.60;;;13.00;99.90;;;;;;5023437;28;20040;-76
2022/09/16 07:37:35;;;;;;;0.98;0.73;;;13.10;99.90;;;;;;5010072;28;20045;-76
2022/09/16 07:40:01;;;;;;;0.50;0.50;;;13.20;99.90;;;;;;5025580;28;20087;-78
2022/09/16 07:42:28;;;;;;;1.23;0.77;;;13.40;99.90;;;;;;5020065;28;20057;-77
2022/09/16 07:44:53;;;;;;;5.15;0.52;;;13.20;99.90;;;;;;5026243;28;20444;-78
2022/09/16 07:47:19;;;;;;;2.15;1.17;;;13.30;99.90;;;;;;5020421;28;20183;-77
2022/09/16 07:49:44;;;;;;;4.05;0.55;;;13.40;99.90;;;;;;5026334;28;20368;-77
2022/09/16 07:52:10;;;;;;;0.80;0.80;;;13.50;99.90;;;;;;5022894;28;20769;-77
2022/09/16 07:54:35;;;;;;;0.30;0.30;;;13.60;99.90;;;;;;5017753;28;20022;-77
2022/09/16 07:57:01;;;;;;;0.55;0.50;;;13.80;99.90;;;;;;5020790;28;20543;-78
2022/09/16 07:59:27;;;;;;;2.60;0.50;;;14.00;99.90;;;;;;5022780;28;20087;-77
2022/09/16 08:01:53;;;;;;;0.38;0.38;;;14.10;99.90;;;;;;5020428;28;20030;-77
2022/09/16 08:04:21;;;;;;;1.13;0.50;;;14.10;99.90;;;;;;5021954;28;20777;-77
2022/09/16 08:06:47;;;;;;;0.68;0.43;;;14.20;99.90;;;;;;5019382;28;20380;-77
2022/09/16 08:09:14;;;;;;;0.80;0.60;;;14.40;99.90;;;;;;5031800;28;20017;-76
2022/09/16 08:11:39;;;;;;;0.75;0.70;;;14.20;99.90;;;;;;5019726;28;20515;-77
2022/09/16 08:14:04;;;;;;;0.82;0.47;;;14.30;99.90;;;;;;5020760;28;20034;-77
2022/09/16 08:16:30;;;;;;;0.50;0.50;;;14.30;99.90;;;;;;5023506;28;20036;-78
2022/09/16 08:18:57;;;;;;;2.22;0.50;;;14.20;99.90;;;;;;5023361;28;20455;-77
2022/09/16 08:21:27;;;;;;;7.05;1.13;;;14.30;99.90;;;;;;5025435;28;20035;-77
2022/09/16 08:23:53;;;;;;;1.13;1.02;;;14.30;99.90;;;;;;5019180;28;20621;-77
2022/09/16 08:26:19;;;;;;;0.75;0.50;;;14.40;99.90;;;;;;5016288;28;20108;-77
2022/09/16 08:28:47;;;;;;;0.93;0.40;;;14.40;99.90;;;;;;5025731;28;20036;-76
2022/09/16 08:31:12;;;;;;;2.08;0.90;;;14.50;99.90;;;;;;5017039;28;20091;-77
2022/09/16 08:33:39;;;;;;;0.30;0.30;;;14.90;99.90;;;;;;5018646;28;20022;-77
2022/09/16 08:36:18;;;;;;;3.50;1.00;;;15.40;99.90;;;;;;5021593;28;20092;-78
2022/09/16 08:38:44;;;;;;;1.85;0.75;;;15.10;99.90;;;;;;5012891;28;20044;-79
2022/09/16 08:41:30;;;;;;;0.40;0.40;;;14.90;99.90;;;;;;5026010;28;20038;-77
2022/09/16 08:44:33;;;;;;;4.28;0.85;;;15.00;99.90;;;;;;5025415;28;20026;-77
2022/09/16 08:47:05;;;;;;;0.85;0.60;;;14.90;99.90;;;;;;5014755;28;20052;-77
2022/09/16 08:49:47;;;;;;;0.70;0.65;;;14.90;99.90;;;;;;5021507;28;20032;-77
2022/09/16 08:52:31;;;;;;;0.35;0.35;;;14.70;99.90;;;;;;5018146;28;20025;-80
2022/09/16 08:55:22;;;;;;;0.22;0.22;;;14.50;99.90;;;;;;5023804;28;20045;-78
2022/09/16 08:57:56;;;;;;;0.35;0.35;;;14.60;99.90;;;;;;5018442;28;20072;-80
2022/09/16 09:00:22;;;;;;;1.65;0.43;;;15.10;99.90;;;;;;5014815;28;20029;-76
2022/09/16 09:02:56;;;;;;;0.63;0.60;;;15.30;99.90;;;;;;5022378;28;20033;-75
2022/09/16 09:05:52;;;;;;;1.08;0.75;;;15.90;99.90;;;;;;5028935;28;20024;-75
2022/09/16 09:08:52;;;;;;;0.60;0.50;;;15.80;99.90;;;;;;5023415;28;20104;-75
2022/09/16 09:11:32;;;;;;;0.43;0.43;;;15.70;99.90;;;;;;5020850;28;20087;-76
2022/09/16 09:14:26;;;;;;;0.70;0.60;;;15.60;98.60;;;;;;5028439;28;20025;-75
2022/09/16 09:17:08;;;;;;;0.95;0.70;;;15.40;99.90;;;;;;5028183;28;20124;-76
2022/09/16 09:20:06;;;;;;;0.85;0.60;;;15.30;99.90;;;;;;5022921;28;20046;-76
2022/09/16 09:22:55;;;;;;;0.32;0.32;;;15.30;99.90;;;;;;5025518;28;20408;-77
2022/09/16 09:25:38;;;;;;;3.45;0.57;;;15.40;98.50;;;;;;5026545;28;20057;-77
2022/09/16 09:28:09;;;;;;;0.30;0.30;;;15.40;99.60;;;;;;5013789;28;20025;-76
2022/09/16 09:30:38;;;;;;;;;;;15.60;99.90;;;;;;5021650;28;20030;-76
2022/09/16 09:33:24;;;;;;;1.73;0.63;;;15.40;98.80;;;;;;5026625;28;20241;-76
2022/09/16 09:36:27;;;;;;;2.65;0.80;;;15.30;99.30;;;;;;5021722;28;20041;-76
2022/09/16 09:39:16;;;;;;;3.05;0.68;;;15.30;98.30;;;;;;5021533;28;20075;-76
2022/09/16 09:41:53;;;;;;;0.35;0.35;;;16.00;95.20;;;;;;5019357;28;20038;-76
2022/09/16 09:44:55;;;;;;;4.35;0.57;;;16.20;94.40;;;;;;5014283;28;20030;-76
2022/09/16 09:47:36;;;;;;;1.83;0.77;;;16.10;93.00;;;;;;5018048;28;20029;-76
2022/09/16 09:50:41;;;;;;;3.83;0.75;;;16.00;92.10;;;;;;5016481;28;20025;-77
2022/09/16 09:53:24;;;;;;;4.75;0.55;;;16.00;91.30;;;;;;5017083;28;20021;-76
2022/09/16 09:55:56;;;;;;;1.83;0.68;;;15.70;92.10;;;;;;5023146;28;20036;-77
2022/09/16 09:58:36;;;;;;;1.63;0.70;;;16.90;90.50;;;;;;5023462;28;20059;-78
2022/09/16 10:01:01;;;;;;;0.43;0.43;;;17.70;84.90;;;;;;5020448;28;20496;-76
2022/09/16 10:03:28;;;;;;;1.10;0.38;;;18.70;78.10;;;;;;5020771;28;20087;-77
2022/09/16 10:05:54;;;;;;;3.05;1.10;;;17.60;79.40;;;;;;5015853;28;20032;-77
2022/09/16 10:08:20;;;;;;;0.82;0.43;;;16.50;82.20;;;;;;5009443;28;20487;-77
2022/09/16 10:10:58;;;;;;;2.38;0.43;;;17.50;82.60;;;;;;5019762;28;20033;-76
2022/09/16 10:13:25;;;;;;;0.38;0.35;;;17.00;81.70;;;;;;5028109;28;20530;-77
2022/09/16 10:16:09;;;;;;;0.52;0.35;;;18.40;74.10;;;;;;5017002;28;20018;-76
2022/09/16 10:18:35;;;;;;;2.45;0.22;;;17.20;78.30;;;;;;5019584;28;20053;-76
2022/09/16 10:21:09;;;;;;;2.08;0.85;;;16.40;81.00;;;;;;5020725;28;20492;-76
2022/09/16 10:23:35;;;;;;;1.40;0.40;;;15.80;84.10;;;;;;5021283;28;20025;-76
2022/09/16 10:26:08;;;;;;;1.75;0.40;;;15.80;85.80;;;;;;5018741;28;20029;-75
2022/09/16 10:28:34;;;;;;;0.40;0.28;;;16.00;85.30;;;;;;5020263;28;20024;-75
2022/09/16 10:31:00;;;;;;;0.85;0.60;;;15.80;84.70;;;;;;5021492;28;20033;-75
2022/09/16 10:33:33;;;;;;;0.47;0.47;;;16.10;82.60;;;;;;5021395;28;20037;-76
2022/09/16 10:36:04;;;;;;;1.00;0.38;;;17.00;80.20;;;;;;5021638;28;20025;-75
2022/09/16 10:38:42;;;;;;;3.63;0.73;;;17.50;73.10;;;;;;5023436;28;20033;-75
2022/09/16 10:41:18;;;;;;;0.47;0.25;;;18.10;70.40;;;;;;5021127;28;20056;-76
2022/09/16 10:43:53;;;;;;;1.55;0.40;;;16.90;74.70;;;;;;5022333;28;20037;-75
2022/09/16 10:46:19;;;;;;;6.43;0.45;;;16.00;77.90;;;;;;5020102;28;20543;-76
2022/09/16 10:48:46;;;;;;;0.70;0.45;;;15.70;79.30;;;;;;5019954;28;20038;-76
2022/09/16 10:51:24;;;;;;;1.02;0.40;;;18.10;74.70;;;;;;5021507;28;20030;-77
2022/09/16 10:53:56;;;;;;;0.30;0.30;;;21.10;63.90;;;;;;5020224;28;20225;-76
2022/09/16 10:56:28;;;;;;;0.20;0.13;;;19.40;64.00;;;;;;5006669;28;20125;-76
2022/09/16 10:59:05;;;;;;;1.60;0.98;;;20.50;60.40;;;;;;5018864;28;20037;-77
2022/09/16 11:01:31;;;;;;;0.40;0.40;;;19.30;64.40;;;;;;5025534;28;20029;-76
2022/09/16 11:04:38;;;;;;;3.40;0.50;;;17.80;68.90;;;;;;5027116;28;20025;-76
2022/09/16 11:07:32;;;;;;;0.75;0.38;;;17.60;70.10;;;;;;5009138;28;20033;-76
2022/09/16 11:09:57;;;;;;;0.50;0.50;;;17.10;72.90;;;;;;5014299;28;20029;-76
2022/09/16 11:12:49;;;;;;;0.73;0.50;;;16.70;73.50;;;;;;5026861;28;20033;-77
2022/09/16 11:15:25;;;;;;;0.45;0.35;;;16.80;74.80;;;;;;5028213;28;20440;-76
2022/09/16 11:18:24;;;;;;;0.45;0.30;;;16.70;74.50;;;;;;5018929;28;20719;-77
2022/09/16 11:21:15;;;;;;;0.43;0.43;;;17.50;71.80;;;;;;5015019;28;20370;-76
2022/09/16 11:24:29;;;;;;;0.30;0.30;;;18.70;67.60;;;;;;5001896;28;20099;-76
2022/09/16 11:27:09;;;;;;;0.20;0.20;;;20.60;61.30;;;;;;5016374;28;20060;-77
2022/09/16 11:30:08;;;;;;;2.15;0.77;;;22.40;59.30;;;;;;5022321;28;20079;-76
2022/09/16 11:32:58;;;;;;;4.47;0.65;;;22.80;55.90;;;;;;4993191;28;20164;-77
2022/09/16 11:35:41;;;;;;;1.95;0.40;;;23.00;54.70;;;;;;5021698;28;20083;-76
2022/09/16 11:38:49;;;;;;;1.15;0.43;;;25.00;49.10;;;;;;5026065;28;20020;-77
2022/09/16 11:41:41;;;;;;;2.05;0.50;;;25.90;47.40;;;;;;5032871;28;20480;-77
2022/09/16 11:44:25;;;;;;;1.88;0.35;;;26.20;45.60;;;;;;5033456;28;20039;-76
2022/09/16 11:47:26;;;;;;;0.93;0.20;;;27.70;42.00;;;;;;5037110;28;20025;-78
2022/09/16 11:50:31;;;;;;;2.03;0.57;;;24.20;46.60;;;;;;5026214;28;20029;-77
2022/09/16 11:53:34;;;;;;;1.80;0.50;;;20.50;54.60;;;;;;4943255;29;20254;-77
2022/09/16 11:56:06;;;;;;;0.47;0.30;;;20.50;54.40;;;;;;4941021;29;20027;-76
2022/09/16 11:58:46;;;;;;;0.30;0.30;;;18.50;59.10;;;;;;5003516;28;20113;-77
2022/09/16 12:01:28;;;;;;;3.38;0.50;;;21.30;55.70;;;;;;5018971;28;20175;-75
2022/09/16 12:04:05;;;;;;;;;;;23.30;49.40;;;;;;5028034;28;20090;-76
2022/09/16 12:06:41;;;;;;;0.20;0.20;;;26.50;43.20;;;;;;5011663;28;20387;-76
2022/09/16 12:09:19;;;;;;;5.13;0.30;;;29.10;39.80;;;;;;5025008;28;20026;-76
2022/09/16 12:11:50;;;;;;;0.47;0.45;;;31.50;36.20;;;;;;5015716;28;20037;-76
2022/09/16 12:14:27;;;;;;;1.95;0.60;;;26.70;39.80;;;;;;5020517;28;20408;-76
2022/09/16 12:16:59;;;;;;;0.70;0.25;;;25.90;42.50;;;;;;5018569;28;20030;-75
2022/09/16 12:19:29;;;;;;;2.03;0.35;;;25.20;42.70;;;;;;5023356;28;20080;-76
2022/09/16 12:22:11;;;;;;;0.32;0.32;;;24.60;44.80;;;;;;5024332;28;20032;-75
2022/09/16 12:25:05;;;;;;;0.85;0.38;;;25.90;42.50;;;;;;5027076;28;20033;-76
2022/09/16 12:27:42;;;;;;;0.20;0.20;;;25.40;42.30;;;;;;5028323;28;20038;-77
2022/09/16 12:30:13;;;;;;;0.38;0.38;;;27.20;40.00;;;;;;5019918;28;20447;-75
2022/09/16 12:32:55;;;;;;;;;;;25.60;39.20;;;;;;5026346;28;20332;-75
2022/09/16 12:35:27;;;;;;;1.30;0.25;;;25.80;38.90;;;;;;5031100;28;19913;-76
2022/09/16 12:37:53;;;;;;;1.08;0.43;;;25.00;41.50;;;;;;5023068;28;20030;-76
2022/09/16 12:40:23;;;;;;;0.47;0.40;;;25.10;39.70;;;;;;5028039;28;20029;-76
2022/09/16 12:43:18;;;;;;;0.60;0.60;;;23.00;43.50;;;;;;5017399;28;20492;-76
2022/09/16 12:46:36;;;;;;;1.23;0.38;;;22.20;45.60;;;;;;4960087;28;20050;-76
2022/09/16 12:49:28;;;;;;;0.45;0.45;;;22.40;46.10;;;;;;4976570;28;20044;-75
2022/09/16 12:52:19;;;;;;;0.45;0.30;;;21.10;49.30;;;;;;5020004;28;20043;-76
2022/09/16 12:54:59;;;;;;;0.30;0.30;;;25.00;42.10;;;;;;5026788;28;20025;-76
2022/09/16 12:57:39;;;;;;;0.77;0.40;;;25.70;41.80;;;;;;5047573;28;20033;-76
2022/09/16 13:00:22;;;;;;;1.15;0.80;;;27.50;37.20;;;;;;5027098;28;20037;-76
2022/09/16 13:03:05;;;;;;;0.65;0.35;;;30.10;35.40;;;;;;5021377;28;20029;-73
2022/09/16 13:05:36;;;;;;;1.85;0.40;;;28.60;34.40;;;;;;5023525;28;20029;-74
2022/09/16 13:08:06;;;;;;;3.28;0.38;;;29.20;34.70;;;;;;5018806;28;20033;-74
2022/09/16 13:10:37;;;;;;;2.35;0.20;;;27.70;37.30;;;;;;5014547;28;20041;-75
2022/09/16 13:13:03;;;;;;;;;;;29.80;35.20;;;;;;5022086;28;20033;-76
2022/09/16 13:15:38;;;;;;;0.85;0.30;;;30.20;34.50;;;;;;5024877;28;20360;-76
2022/09/16 13:18:16;;;;;;;1.65;0.40;;;30.90;34.20;;;;;;5027511;28;20038;-76
2022/09/16 13:20:50;;;;;;;1.02;0.45;;;33.30;31.30;;;;;;5016100;28;20034;-75
2022/09/16 13:23:17;;;;;;;0.73;0.40;;;30.80;33.40;;;;;;5020575;28;20045;-75
2022/09/16 13:26:16;;;;;;;0.65;0.30;;;31.80;32.60;;;;;;5019579;28;20159;-76